sensor_id;sensor_type;location;lat;lon;timestamp;temperature;humidity
16064;DHT22;8136;53.172;8.256;2023-04-25T00:01:46;7.90;99.90
16064;DHT22;8136;53.172;8.256;2023-04-25T00:04:12;7.90;99.90
16064;DHT22;8136;53.172;8.256;2023-04-25T00:06:39;7.90;99.90
16064;DHT22;8136;53.172;8.256;2023-04-25T00:09:06;7.80;99.90
16064;DHT22;8136;53.172;8.256;2023-04-25T00:11:36;7.80;99.90
16064;DHT22;8136;53.172;8.256;2023-04-25T00:14:03;7.80;99.90
16064;DHT22;8136;53.172;8.256;2023-04-25T00:16:30;7.80;99.90
16064;DHT22;8136;53.172;8.256;2023-04-25T00:18:59;7.80;99.90
16064;DHT22;8136;53.172;8.256;2023-04-25T00:21:26;7.80;99.90
16064;DHT22;8136;53.172;8.256;2023-04-25T00:23:53;7.70;99.90
16064;DHT22;8136;53.172;8.256;2023-04-25T00:26:20;7.70;99.90
16064;DHT22;8136;53.172;8.256;2023-04-25T00:28:49;7.70;99.90
16064;DHT22;8136;53.172;8.256;2023-04-25T00:31:15;7.70;99.90
16064;DHT22;8136;53.172;8.256;2023-04-25T00:33:42;7.70;99.90
16064;DHT22;8136;53.172;8.256;2023-04-25T00:36:09;7.60;99.90
16064;DHT22;8136;53.172;8.256;2023-04-25T00:38:36;7.50;99.90
16064;DHT22;8136;53.172;8.256;2023-04-25T00:41:05;7.50;99.90
16064;DHT22;8136;53.172;8.256;2023-04-25T00:43:32;7.50;99.90
16064;DHT22;8136;53.172;8.256;2023-04-25T00:46:01;7.60;99.90
16064;DHT22;8136;53.172;8.256;2023-04-25T00:48:28;7.50;99.90
16064;DHT22;8136;53.172;8.256;2023-04-25T00:50:56;7.50;99.90
16064;DHT22;8136;53.172;8.256;2023-04-25T00:53:25;7.50;99.90
16064;DHT22;8136;53.172;8.256;2023-04-25T00:55:53;7.50;99.90
16064;DHT22;8136;53.172;8.256;2023-04-25T00:58:20;7.50;99.90
16064;DHT22;8136;53.172;8.256;2023-04-25T01:00:49;7.50;99.90
16064;DHT22;8136;53.172;8.256;2023-04-25T01:03:17;7.40;99.90
16064;DHT22;8136;53.172;8.256;2023-04-25T01:05:46;7.40;99.90
16064;DHT22;8136;53.172;8.256;2023-04-25T01:08:14;7.30;99.90
16064;DHT22;8136;53.172;8.256;2023-04-25T01:10:41;7.40;99.90
16064;DHT22;8136;53.172;8.256;2023-04-25T01:13:08;7.30;99.90
16064;DHT22;8136;53.172;8.256;2023-04-25T01:15:35;7.30;99.90
16064;DHT22;8136;53.172;8.256;2023-04-25T01:18:02;7.30;99.90
16064;DHT22;8136;53.172;8.256;2023-04-25T01:20:32;7.30;99.90
16064;DHT22;8136;53.172;8.256;2023-04-25T01:23:00;7.30;99.90
16064;DHT22;8136;53.172;8.256;2023-04-25T01:25:29;7.30;99.90
16064;DHT22;8136;53.172;8.256;2023-04-25T01:27:56;7.40;99.90
16064;DHT22;8136;53.172;8.256;2023-04-25T01:30:23;7.30;99.90
16064;DHT22;8136;53.172;8.256;2023-04-25T01:32:51;7.30;99.90
16064;DHT22;8136;53.172;8.256;2023-04-25T01:35:18;7.30;99.90
16064;DHT22;8136;53.172;8.256;2023-04-25T01:37:45;7.30;99.90
16064;DHT22;8136;53.172;8.256;2023-04-25T01:40:13;7.30;99.90
16064;DHT22;8136;53.172;8.256;2023-04-25T01:42:42;7.30;99.90
16064;DHT22;8136;53.172;8.256;2023-04-25T01:45:10;7.30;99.90
16064;DHT22;8136;53.172;8.256;2023-04-25T01:47:37;7.30;99.90
16064;DHT22;8136;53.172;8.256;2023-04-25T01:50:06;7.30;99.90
16064;DHT22;8136;53.172;8.256;2023-04-25T01:52:33;7.30;99.90
16064;DHT22;8136;53.172;8.256;2023-04-25T01:55:02;7.20;99.90
16064;DHT22;8136;53.172;8.256;2023-04-25T01:57:30;7.20;99.90
16064;DHT22;8136;53.172;8.256;2023-04-25T01:59:59;7.10;99.90
16064;DHT22;8136;53.172;8.256;2023-04-25T02:02:26;7.10;99.90
16064;DHT22;8136;53.172;8.256;2023-04-25T02:04:53;7.10;99.90
16064;DHT22;8136;53.172;8.256;2023-04-25T02:07:21;7.10;99.90
16064;DHT22;8136;53.172;8.256;2023-04-25T02:09:48;7.10;99.90
16064;DHT22;8136;53.172;8.256;2023-04-25T02:12:15;7.00;99.90
16064;DHT22;8136;53.172;8.256;2023-04-25T02:14:43;7.00;99.90
16064;DHT22;8136;53.172;8.256;2023-04-25T02:17:10;7.00;99.90
16064;DHT22;8136;53.172;8.256;2023-04-25T02:19:38;7.00;99.90
16064;DHT22;8136;53.172;8.256;2023-04-25T02:22:04;7.00;99.90
16064;DHT22;8136;53.172;8.256;2023-04-25T02:24:31;7.10;99.90
16064;DHT22;8136;53.172;8.256;2023-04-25T02:26:59;7.10;99.90
16064;DHT22;8136;53.172;8.256;2023-04-25T02:29:26;7.10;99.90
16064;DHT22;8136;53.172;8.256;2023-04-25T02:31:54;7.10;99.90
16064;DHT22;8136;53.172;8.256;2023-04-25T02:34:21;7.10;99.90
16064;DHT22;8136;53.172;8.256;2023-04-25T02:36:48;7.00;99.90
16064;DHT22;8136;53.172;8.256;2023-04-25T02:39:16;7.10;99.90
16064;DHT22;8136;53.172;8.256;2023-04-25T02:41:43;7.00;99.90
16064;DHT22;8136;53.172;8.256;2023-04-25T02:44:09;7.00;99.90
16064;DHT22;8136;53.172;8.256;2023-04-25T02:46:36;7.00;99.90
16064;DHT22;8136;53.172;8.256;2023-04-25T02:49:04;7.00;99.90
16064;DHT22;8136;53.172;8.256;2023-04-25T02:51:31;7.00;99.90
16064;DHT22;8136;53.172;8.256;2023-04-25T02:53:59;7.00;99.90
16064;DHT22;8136;53.172;8.256;2023-04-25T02:56:25;7.00;99.90
16064;DHT22;8136;53.172;8.256;2023-04-25T02:58:52;7.00;99.90
16064;DHT22;8136;53.172;8.256;2023-04-25T03:01:19;7.00;99.90
16064;DHT22;8136;53.172;8.256;2023-04-25T03:03:46;7.00;99.90
16064;DHT22;8136;53.172;8.256;2023-04-25T03:06:14;7.00;99.90
16064;DHT22;8136;53.172;8.256;2023-04-25T03:08:41;6.90;99.90
16064;DHT22;8136;53.172;8.256;2023-04-25T03:11:08;6.90;99.90
16064;DHT22;8136;53.172;8.256;2023-04-25T03:13:35;6.90;99.90
16064;DHT22;8136;53.172;8.256;2023-04-25T03:16:02;6.80;99.90
16064;DHT22;8136;53.172;8.256;2023-04-25T03:18:29;6.90;99.90
16064;DHT22;8136;53.172;8.256;2023-04-25T03:20:56;6.80;99.90
16064;DHT22;8136;53.172;8.256;2023-04-25T03:23:24;6.80;99.90
16064;DHT22;8136;53.172;8.256;2023-04-25T03:25:51;6.80;99.90
16064;DHT22;8136;53.172;8.256;2023-04-25T03:28:18;6.80;99.90
16064;DHT22;8136;53.172;8.256;2023-04-25T03:30:45;6.80;99.90
16064;DHT22;8136;53.172;8.256;2023-04-25T03:33:12;6.80;99.90
16064;DHT22;8136;53.172;8.256;2023-04-25T03:35:38;6.80;99.90
16064;DHT22;8136;53.172;8.256;2023-04-25T03:38:05;6.70;99.90
16064;DHT22;8136;53.172;8.256;2023-04-25T03:40:33;6.70;99.90
16064;DHT22;8136;53.172;8.256;2023-04-25T03:43:00;6.70;99.90
16064;DHT22;8136;53.172;8.256;2023-04-25T03:45:27;6.70;99.90
16064;DHT22;8136;53.172;8.256;2023-04-25T03:47:54;6.70;99.90
16064;DHT22;8136;53.172;8.256;2023-04-25T03:50:20;6.60;99.90
16064;DHT22;8136;53.172;8.256;2023-04-25T03:52:47;6.60;99.90
16064;DHT22;8136;53.172;8.256;2023-04-25T03:55:14;6.70;99.90
16064;DHT22;8136;53.172;8.256;2023-04-25T03:57:43;6.60;99.90
16064;DHT22;8136;53.172;8.256;2023-04-25T04:00:11;6.70;99.90
16064;DHT22;8136;53.172;8.256;2023-04-25T04:02:38;6.70;99.90
16064;DHT22;8136;53.172;8.256;2023-04-25T04:05:05;6.70;99.90
16064;DHT22;8136;53.172;8.256;2023-04-25T04:07:32;6.80;99.90
16064;DHT22;8136;53.172;8.256;2023-04-25T04:10:02;6.80;99.90
16064;DHT22;8136;53.172;8.256;2023-04-25T04:12:30;6.70;99.90
16064;DHT22;8136;53.172;8.256;2023-04-25T04:14:58;6.70;99.90
16064;DHT22;8136;53.172;8.256;2023-04-25T04:17:25;6.70;99.90
16064;DHT22;8136;53.172;8.256;2023-04-25T04:19:52;6.70;99.90
16064;DHT22;8136;53.172;8.256;2023-04-25T04:22:19;6.70;99.90
16064;DHT22;8136;53.172;8.256;2023-04-25T04:24:45;6.70;99.90
16064;DHT22;8136;53.172;8.256;2023-04-25T04:27:13;6.70;99.90
16064;DHT22;8136;53.172;8.256;2023-04-25T04:29:40;6.70;99.90
16064;DHT22;8136;53.172;8.256;2023-04-25T04:32:08;6.70;99.90
16064;DHT22;8136;53.172;8.256;2023-04-25T04:34:35;6.70;99.90
16064;DHT22;8136;53.172;8.256;2023-04-25T04:37:02;6.70;99.90
16064;DHT22;8136;53.172;8.256;2023-04-25T04:39:29;6.70;99.90
16064;DHT22;8136;53.172;8.256;2023-04-25T04:41:56;6.70;99.90
16064;DHT22;8136;53.172;8.256;2023-04-25T04:44:23;6.70;99.90
16064;DHT22;8136;53.172;8.256;2023-04-25T04:46:50;6.70;99.90
16064;DHT22;8136;53.172;8.256;2023-04-25T04:49:18;6.70;99.90
16064;DHT22;8136;53.172;8.256;2023-04-25T04:51:45;6.70;99.90
16064;DHT22;8136;53.172;8.256;2023-04-25T04:54:12;6.70;99.90
16064;DHT22;8136;53.172;8.256;2023-04-25T04:56:39;6.60;99.90
16064;DHT22;8136;53.172;8.256;2023-04-25T04:59:07;6.50;99.90
16064;DHT22;8136;53.172;8.256;2023-04-25T05:01:34;6.60;99.90
16064;DHT22;8136;53.172;8.256;2023-04-25T05:04:01;6.60;99.90
16064;DHT22;8136;53.172;8.256;2023-04-25T05:06:30;6.50;99.90
16064;DHT22;8136;53.172;8.256;2023-04-25T05:08:57;6.40;99.90
16064;DHT22;8136;53.172;8.256;2023-04-25T05:11:25;6.50;99.90
16064;DHT22;8136;53.172;8.256;2023-04-25T05:13:53;6.40;99.90
16064;DHT22;8136;53.172;8.256;2023-04-25T05:16:20;6.50;99.90
16064;DHT22;8136;53.172;8.256;2023-04-25T05:18:47;6.60;99.90
16064;DHT22;8136;53.172;8.256;2023-04-25T05:21:14;6.60;99.90
16064;DHT22;8136;53.172;8.256;2023-04-25T05:23:43;6.50;99.90
16064;DHT22;8136;53.172;8.256;2023-04-25T05:26:10;6.60;99.90
16064;DHT22;8136;53.172;8.256;2023-04-25T05:28:39;6.60;99.90
16064;DHT22;8136;53.172;8.256;2023-04-25T05:31:06;6.60;99.90
16064;DHT22;8136;53.172;8.256;2023-04-25T05:33:33;6.60;99.90
16064;DHT22;8136;53.172;8.256;2023-04-25T05:36:00;6.60;99.90
16064;DHT22;8136;53.172;8.256;2023-04-25T05:38:27;6.60;99.90
16064;DHT22;8136;53.172;8.256;2023-04-25T05:40:55;6.60;99.90
16064;DHT22;8136;53.172;8.256;2023-04-25T05:43:22;6.60;99.90
16064;DHT22;8136;53.172;8.256;2023-04-25T05:45:48;6.70;99.90
16064;DHT22;8136;53.172;8.256;2023-04-25T05:48:15;6.70;99.90
16064;DHT22;8136;53.172;8.256;2023-04-25T05:50:42;6.80;99.90
16064;DHT22;8136;53.172;8.256;2023-04-25T05:53:09;6.90;99.90
16064;DHT22;8136;53.172;8.256;2023-04-25T05:55:36;7.00;99.90
16064;DHT22;8136;53.172;8.256;2023-04-25T05:58:05;7.10;99.90
16064;DHT22;8136;53.172;8.256;2023-04-25T06:00:32;7.10;99.90
16064;DHT22;8136;53.172;8.256;2023-04-25T06:02:59;7.20;99.90
16064;DHT22;8136;53.172;8.256;2023-04-25T06:05:26;7.30;99.90
16064;DHT22;8136;53.172;8.256;2023-04-25T06:07:53;7.30;99.90
16064;DHT22;8136;53.172;8.256;2023-04-25T06:10:20;7.40;99.90
16064;DHT22;8136;53.172;8.256;2023-04-25T06:12:48;7.40;99.90
16064;DHT22;8136;53.172;8.256;2023-04-25T06:15:16;7.50;99.90
16064;DHT22;8136;53.172;8.256;2023-04-25T06:17:43;7.50;99.90
16064;DHT22;8136;53.172;8.256;2023-04-25T06:20:11;7.60;99.90
16064;DHT22;8136;53.172;8.256;2023-04-25T06:22:38;7.60;99.90
16064;DHT22;8136;53.172;8.256;2023-04-25T06:25:05;7.60;99.90
16064;DHT22;8136;53.172;8.256;2023-04-25T06:27:32;7.70;99.90
16064;DHT22;8136;53.172;8.256;2023-04-25T06:29:59;7.80;99.90
16064;DHT22;8136;53.172;8.256;2023-04-25T06:32:27;7.80;99.90
16064;DHT22;8136;53.172;8.256;2023-04-25T06:34:55;7.80;99.90
16064;DHT22;8136;53.172;8.256;2023-04-25T06:37:22;7.80;99.90
16064;DHT22;8136;53.172;8.256;2023-04-25T06:39:49;7.80;99.90
16064;DHT22;8136;53.172;8.256;2023-04-25T06:42:15;7.80;99.90
16064;DHT22;8136;53.172;8.256;2023-04-25T06:44:42;7.80;99.90
16064;DHT22;8136;53.172;8.256;2023-04-25T06:47:09;7.80;99.90
16064;DHT22;8136;53.172;8.256;2023-04-25T06:49:37;7.90;99.90
16064;DHT22;8136;53.172;8.256;2023-04-25T06:52:04;7.90;99.90
16064;DHT22;8136;53.172;8.256;2023-04-25T06:54:31;7.90;99.90
16064;DHT22;8136;53.172;8.256;2023-04-25T06:56:58;8.00;99.90
16064;DHT22;8136;53.172;8.256;2023-04-25T06:59:26;8.10;99.90
16064;DHT22;8136;53.172;8.256;2023-04-25T07:01:53;8.10;99.90
16064;DHT22;8136;53.172;8.256;2023-04-25T07:04:20;8.20;99.90
16064;DHT22;8136;53.172;8.256;2023-04-25T07:06:48;8.30;99.90
16064;DHT22;8136;53.172;8.256;2023-04-25T07:09:15;8.20;99.90
16064;DHT22;8136;53.172;8.256;2023-04-25T07:11:42;8.20;99.90
16064;DHT22;8136;53.172;8.256;2023-04-25T07:14:08;8.30;99.90
16064;DHT22;8136;53.172;8.256;2023-04-25T07:16:35;8.30;99.90
16064;DHT22;8136;53.172;8.256;2023-04-25T07:19:02;8.40;99.90
16064;DHT22;8136;53.172;8.256;2023-04-25T07:21:29;8.60;99.90
16064;DHT22;8136;53.172;8.256;2023-04-25T07:23:58;8.60;99.90
16064;DHT22;8136;53.172;8.256;2023-04-25T07:26:25;8.60;99.90
16064;DHT22;8136;53.172;8.256;2023-04-25T07:28:52;8.60;99.90
16064;DHT22;8136;53.172;8.256;2023-04-25T07:31:20;8.60;99.90
16064;DHT22;8136;53.172;8.256;2023-04-25T07:33:47;8.70;99.90
16064;DHT22;8136;53.172;8.256;2023-04-25T07:36:14;8.60;99.90
16064;DHT22;8136;53.172;8.256;2023-04-25T07:38:41;8.60;99.90
16064;DHT22;8136;53.172;8.256;2023-04-25T07:41:09;8.60;99.90
16064;DHT22;8136;53.172;8.256;2023-04-25T07:43:36;8.60;99.90
16064;DHT22;8136;53.172;8.256;2023-04-25T07:46:04;8.50;99.90
16064;DHT22;8136;53.172;8.256;2023-04-25T07:48:31;8.30;99.90
16064;DHT22;8136;53.172;8.256;2023-04-25T07:50:58;8.30;99.90
16064;DHT22;8136;53.172;8.256;2023-04-25T07:53:25;8.00;99.90
16064;DHT22;8136;53.172;8.256;2023-04-25T07:55:52;7.80;99.90
16064;DHT22;8136;53.172;8.256;2023-04-25T07:58:20;7.50;99.90
16064;DHT22;8136;53.172;8.256;2023-04-25T08:00:47;7.10;99.90
16064;DHT22;8136;53.172;8.256;2023-04-25T08:03:15;6.90;99.90
16064;DHT22;8136;53.172;8.256;2023-04-25T08:05:42;6.90;99.90
16064;DHT22;8136;53.172;8.256;2023-04-25T08:08:08;6.90;99.90
16064;DHT22;8136;53.172;8.256;2023-04-25T08:10:35;6.90;99.90
16064;DHT22;8136;53.172;8.256;2023-04-25T08:13:02;7.00;99.90
16064;DHT22;8136;53.172;8.256;2023-04-25T08:15:30;7.10;99.90
16064;DHT22;8136;53.172;8.256;2023-04-25T08:17:57;7.30;99.90
16064;DHT22;8136;53.172;8.256;2023-04-25T08:20:24;7.40;99.90
16064;DHT22;8136;53.172;8.256;2023-04-25T08:22:51;7.50;99.90
16064;DHT22;8136;53.172;8.256;2023-04-25T08:25:18;7.70;99.90
16064;DHT22;8136;53.172;8.256;2023-04-25T08:27:45;7.90;99.90
16064;DHT22;8136;53.172;8.256;2023-04-25T08:30:12;8.10;99.90
16064;DHT22;8136;53.172;8.256;2023-04-25T08:32:41;8.30;99.90
16064;DHT22;8136;53.172;8.256;2023-04-25T08:35:08;8.40;99.90
16064;DHT22;8136;53.172;8.256;2023-04-25T08:37:35;8.50;99.90
16064;DHT22;8136;53.172;8.256;2023-04-25T08:40:01;8.70;99.90
16064;DHT22;8136;53.172;8.256;2023-04-25T08:42:33;8.70;99.90
16064;DHT22;8136;53.172;8.256;2023-04-25T08:45:01;8.60;99.90
16064;DHT22;8136;53.172;8.256;2023-04-25T08:47:30;8.50;99.90
16064;DHT22;8136;53.172;8.256;2023-04-25T08:50:02;8.10;99.90
16064;DHT22;8136;53.172;8.256;2023-04-25T08:52:36;7.70;99.90
16064;DHT22;8136;53.172;8.256;2023-04-25T08:55:05;7.60;99.90
16064;DHT22;8136;53.172;8.256;2023-04-25T08:57:34;7.60;99.90
16064;DHT22;8136;53.172;8.256;2023-04-25T09:00:01;7.60;99.90
16064;DHT22;8136;53.172;8.256;2023-04-25T09:02:29;7.70;99.90
16064;DHT22;8136;53.172;8.256;2023-04-25T09:04:56;7.80;99.90
16064;DHT22;8136;53.172;8.256;2023-04-25T09:07:25;8.00;99.90
16064;DHT22;8136;53.172;8.256;2023-04-25T09:09:51;8.20;99.90
16064;DHT22;8136;53.172;8.256;2023-04-25T09:12:19;8.30;99.90
16064;DHT22;8136;53.172;8.256;2023-04-25T09:15:02;8.50;99.90
16064;DHT22;8136;53.172;8.256;2023-04-25T09:17:30;8.80;99.90
16064;DHT22;8136;53.172;8.256;2023-04-25T09:20:06;8.90;99.90
16064;DHT22;8136;53.172;8.256;2023-04-25T09:22:36;9.30;99.90
16064;DHT22;8136;53.172;8.256;2023-04-25T09:25:07;9.40;99.90
16064;DHT22;8136;53.172;8.256;2023-04-25T09:27:34;9.60;99.90
16064;DHT22;8136;53.172;8.256;2023-04-25T09:30:01;9.60;99.90
16064;DHT22;8136;53.172;8.256;2023-04-25T09:32:29;9.60;99.90
16064;DHT22;8136;53.172;8.256;2023-04-25T09:34:56;9.50;99.90
16064;DHT22;8136;53.172;8.256;2023-04-25T09:37:25;9.20;99.90
16064;DHT22;8136;53.172;8.256;2023-04-25T09:39:55;8.90;99.90
16064;DHT22;8136;53.172;8.256;2023-04-25T09:42:23;8.50;99.90
16064;DHT22;8136;53.172;8.256;2023-04-25T09:44:52;8.20;99.90
16064;DHT22;8136;53.172;8.256;2023-04-25T09:47:21;8.00;99.90
16064;DHT22;8136;53.172;8.256;2023-04-25T09:49:49;7.80;99.90
16064;DHT22;8136;53.172;8.256;2023-04-25T09:52:18;7.60;99.90
16064;DHT22;8136;53.172;8.256;2023-04-25T09:54:45;7.60;99.90
16064;DHT22;8136;53.172;8.256;2023-04-25T09:57:14;7.60;99.90
16064;DHT22;8136;53.172;8.256;2023-04-25T09:59:45;7.60;99.90
16064;DHT22;8136;53.172;8.256;2023-04-25T10:02:14;7.70;99.90
16064;DHT22;8136;53.172;8.256;2023-04-25T10:04:41;7.80;99.90
16064;DHT22;8136;53.172;8.256;2023-04-25T10:07:09;7.90;99.90
16064;DHT22;8136;53.172;8.256;2023-04-25T10:09:38;8.00;99.90
16064;DHT22;8136;53.172;8.256;2023-04-25T10:12:06;8.10;99.90
16064;DHT22;8136;53.172;8.256;2023-04-25T10:14:35;8.20;99.90
16064;DHT22;8136;53.172;8.256;2023-04-25T10:17:02;8.40;99.90
16064;DHT22;8136;53.172;8.256;2023-04-25T10:19:29;8.50;99.90
16064;DHT22;8136;53.172;8.256;2023-04-25T10:22:03;8.70;99.90
16064;DHT22;8136;53.172;8.256;2023-04-25T10:24:31;8.80;99.90
16064;DHT22;8136;53.172;8.256;2023-04-25T10:26:58;8.90;99.90
16064;DHT22;8136;53.172;8.256;2023-04-25T10:29:26;9.00;99.90
16064;DHT22;8136;53.172;8.256;2023-04-25T10:31:55;9.20;99.90
16064;DHT22;8136;53.172;8.256;2023-04-25T10:34:24;9.40;99.90
16064;DHT22;8136;53.172;8.256;2023-04-25T10:36:52;9.60;99.90
16064;DHT22;8136;53.172;8.256;2023-04-25T10:39:25;9.80;99.90
16064;DHT22;8136;53.172;8.256;2023-04-25T10:41:55;10.00;99.90
16064;DHT22;8136;53.172;8.256;2023-04-25T10:44:23;10.10;99.90
16064;DHT22;8136;53.172;8.256;2023-04-25T10:46:54;10.40;99.90
16064;DHT22;8136;53.172;8.256;2023-04-25T10:49:33;10.40;99.90
16064;DHT22;8136;53.172;8.256;2023-04-25T10:52:25;10.40;99.90
16064;DHT22;8136;53.172;8.256;2023-04-25T10:54:53;10.50;99.90
16064;DHT22;8136;53.172;8.256;2023-04-25T10:57:27;10.50;99.90
16064;DHT22;8136;53.172;8.256;2023-04-25T10:59:58;10.60;99.90
16064;DHT22;8136;53.172;8.256;2023-04-25T11:02:26;10.60;99.90
16064;DHT22;8136;53.172;8.256;2023-04-25T11:04:55;10.70;99.90
16064;DHT22;8136;53.172;8.256;2023-04-25T11:07:28;10.60;99.90
16064;DHT22;8136;53.172;8.256;2023-04-25T11:10:01;10.50;99.90
16064;DHT22;8136;53.172;8.256;2023-04-25T11:12:30;10.40;99.90
16064;DHT22;8136;53.172;8.256;2023-04-25T11:15:02;10.30;99.90
16064;DHT22;8136;53.172;8.256;2023-04-25T11:17:29;10.20;99.90
16064;DHT22;8136;53.172;8.256;2023-04-25T11:19:58;10.10;99.90
16064;DHT22;8136;53.172;8.256;2023-04-25T11:22:26;10.20;99.90
16064;DHT22;8136;53.172;8.256;2023-04-25T11:24:54;10.40;99.90
16064;DHT22;8136;53.172;8.256;2023-04-25T11:27:21;10.60;99.90
16064;DHT22;8136;53.172;8.256;2023-04-25T11:29:50;10.80;99.90
16064;DHT22;8136;53.172;8.256;2023-04-25T11:32:17;10.90;99.90
16064;DHT22;8136;53.172;8.256;2023-04-25T11:34:44;10.70;99.90
16064;DHT22;8136;53.172;8.256;2023-04-25T11:37:14;10.40;99.90
16064;DHT22;8136;53.172;8.256;2023-04-25T11:39:43;10.10;99.90
16064;DHT22;8136;53.172;8.256;2023-04-25T11:42:11;9.80;99.90
16064;DHT22;8136;53.172;8.256;2023-04-25T11:44:38;9.60;99.90
16064;DHT22;8136;53.172;8.256;2023-04-25T11:47:06;9.50;99.90
16064;DHT22;8136;53.172;8.256;2023-04-25T11:49:32;9.60;99.90
16064;DHT22;8136;53.172;8.256;2023-04-25T11:52:01;9.80;99.90
16064;DHT22;8136;53.172;8.256;2023-04-25T11:54:29;10.00;99.90
16064;DHT22;8136;53.172;8.256;2023-04-25T11:56:56;10.20;99.90
16064;DHT22;8136;53.172;8.256;2023-04-25T11:59:24;10.50;99.90
16064;DHT22;8136;53.172;8.256;2023-04-25T12:01:50;10.60;99.90
16064;DHT22;8136;53.172;8.256;2023-04-25T12:04:19;10.50;99.90
16064;DHT22;8136;53.172;8.256;2023-04-25T12:06:47;10.50;99.90
16064;DHT22;8136;53.172;8.256;2023-04-25T12:09:15;10.60;99.90
16064;DHT22;8136;53.172;8.256;2023-04-25T12:11:46;10.80;99.90
16064;DHT22;8136;53.172;8.256;2023-04-25T12:14:20;11.20;99.90
16064;DHT22;8136;53.172;8.256;2023-04-25T12:16:48;11.40;99.90
16064;DHT22;8136;53.172;8.256;2023-04-25T12:19:17;11.60;99.90
16064;DHT22;8136;53.172;8.256;2023-04-25T12:21:44;11.70;99.90
16064;DHT22;8136;53.172;8.256;2023-04-25T12:24:12;11.60;99.90
16064;DHT22;8136;53.172;8.256;2023-04-25T12:26:51;11.40;99.90
16064;DHT22;8136;53.172;8.256;2023-04-25T12:29:19;11.40;99.90
16064;DHT22;8136;53.172;8.256;2023-04-25T12:31:46;11.50;99.90
16064;DHT22;8136;53.172;8.256;2023-04-25T12:34:13;11.50;99.90
16064;DHT22;8136;53.172;8.256;2023-04-25T12:36:41;11.50;99.90
16064;DHT22;8136;53.172;8.256;2023-04-25T12:39:08;11.20;99.90
16064;DHT22;8136;53.172;8.256;2023-04-25T12:41:35;11.30;99.90
16064;DHT22;8136;53.172;8.256;2023-04-25T12:44:04;11.40;99.90
16064;DHT22;8136;53.172;8.256;2023-04-25T12:46:31;11.60;99.90
16064;DHT22;8136;53.172;8.256;2023-04-25T12:48:58;11.80;99.90
16064;DHT22;8136;53.172;8.256;2023-04-25T12:51:25;11.70;99.90
16064;DHT22;8136;53.172;8.256;2023-04-25T12:53:53;11.60;99.90
16064;DHT22;8136;53.172;8.256;2023-04-25T12:56:20;11.50;99.90
16064;DHT22;8136;53.172;8.256;2023-04-25T12:58:47;11.60;99.90
16064;DHT22;8136;53.172;8.256;2023-04-25T13:01:15;11.80;99.90
16064;DHT22;8136;53.172;8.256;2023-04-25T13:03:42;11.80;99.90
16064;DHT22;8136;53.172;8.256;2023-04-25T13:06:10;11.90;99.90
16064;DHT22;8136;53.172;8.256;2023-04-25T13:08:38;12.20;99.90
16064;DHT22;8136;53.172;8.256;2023-04-25T13:11:35;12.40;99.90
16064;DHT22;8136;53.172;8.256;2023-04-25T13:14:02;12.40;99.90
16064;DHT22;8136;53.172;8.256;2023-04-25T13:16:30;12.40;99.90
16064;DHT22;8136;53.172;8.256;2023-04-25T13:18:58;12.50;99.90
16064;DHT22;8136;53.172;8.256;2023-04-25T13:21:25;12.40;99.90
16064;DHT22;8136;53.172;8.256;2023-04-25T13:23:52;12.50;99.90
16064;DHT22;8136;53.172;8.256;2023-04-25T13:26:19;12.60;99.90
16064;DHT22;8136;53.172;8.256;2023-04-25T13:28:46;12.60;99.90
16064;DHT22;8136;53.172;8.256;2023-04-25T13:31:13;12.50;99.90
16064;DHT22;8136;53.172;8.256;2023-04-25T13:33:41;12.50;99.90
16064;DHT22;8136;53.172;8.256;2023-04-25T13:36:15;12.70;99.90
16064;DHT22;8136;53.172;8.256;2023-04-25T13:38:42;12.80;99.90
16064;DHT22;8136;53.172;8.256;2023-04-25T13:41:10;12.70;99.70
16064;DHT22;8136;53.172;8.256;2023-04-25T13:43:41;12.30;99.90
16064;DHT22;8136;53.172;8.256;2023-04-25T13:46:08;11.80;99.90
16064;DHT22;8136;53.172;8.256;2023-04-25T13:48:35;11.60;99.90
16064;DHT22;8136;53.172;8.256;2023-04-25T13:51:15;11.50;99.90
16064;DHT22;8136;53.172;8.256;2023-04-25T13:53:43;11.30;99.90
16064;DHT22;8136;53.172;8.256;2023-04-25T13:56:10;11.10;99.90
16064;DHT22;8136;53.172;8.256;2023-04-25T13:58:38;11.10;99.90
16064;DHT22;8136;53.172;8.256;2023-04-25T14:01:04;11.30;99.90
16064;DHT22;8136;53.172;8.256;2023-04-25T14:03:31;11.30;99.90
16064;DHT22;8136;53.172;8.256;2023-04-25T14:06:00;11.40;99.90
16064;DHT22;8136;53.172;8.256;2023-04-25T14:08:29;11.60;99.90
16064;DHT22;8136;53.172;8.256;2023-04-25T14:10:56;12.00;99.90
16064;DHT22;8136;53.172;8.256;2023-04-25T14:13:23;12.20;99.90
16064;DHT22;8136;53.172;8.256;2023-04-25T14:15:50;11.90;99.90
16064;DHT22;8136;53.172;8.256;2023-04-25T14:18:17;11.70;99.90
16064;DHT22;8136;53.172;8.256;2023-04-25T14:20:45;11.50;99.90
16064;DHT22;8136;53.172;8.256;2023-04-25T14:23:11;11.40;99.90
16064;DHT22;8136;53.172;8.256;2023-04-25T14:25:40;11.30;99.90
16064;DHT22;8136;53.172;8.256;2023-04-25T14:28:08;11.20;99.90
16064;DHT22;8136;53.172;8.256;2023-04-25T14:30:35;11.70;99.90
16064;DHT22;8136;53.172;8.256;2023-04-25T14:33:02;12.00;99.90
16064;DHT22;8136;53.172;8.256;2023-04-25T14:35:29;12.00;99.90
16064;DHT22;8136;53.172;8.256;2023-04-25T14:37:56;11.80;99.90
16064;DHT22;8136;53.172;8.256;2023-04-25T14:40:23;11.60;99.90
16064;DHT22;8136;53.172;8.256;2023-04-25T14:42:51;11.60;99.90
16064;DHT22;8136;53.172;8.256;2023-04-25T14:45:18;11.60;99.90
16064;DHT22;8136;53.172;8.256;2023-04-25T14:47:45;11.40;99.90
16064;DHT22;8136;53.172;8.256;2023-04-25T14:50:18;11.10;99.90
16064;DHT22;8136;53.172;8.256;2023-04-25T14:52:45;10.90;99.90
16064;DHT22;8136;53.172;8.256;2023-04-25T14:55:12;10.80;99.90
16064;DHT22;8136;53.172;8.256;2023-04-25T14:57:39;12.00;99.90
16064;DHT22;8136;53.172;8.256;2023-04-25T15:00:09;13.70;99.90
16064;DHT22;8136;53.172;8.256;2023-04-25T15:02:40;15.40;99.90
16064;DHT22;8136;53.172;8.256;2023-04-25T15:05:08;16.80;99.30
16064;DHT22;8136;53.172;8.256;2023-04-25T15:07:35;16.20;98.50
16064;DHT22;8136;53.172;8.256;2023-04-25T15:10:02;14.50;99.20
16064;DHT22;8136;53.172;8.256;2023-04-25T15:12:31;13.50;99.90
16064;DHT22;8136;53.172;8.256;2023-04-25T15:14:58;12.70;99.90
16064;DHT22;8136;53.172;8.256;2023-04-25T15:17:26;12.20;99.90
16064;DHT22;8136;53.172;8.256;2023-04-25T15:19:56;11.90;99.90
16064;DHT22;8136;53.172;8.256;2023-04-25T15:22:23;11.60;99.90
16064;DHT22;8136;53.172;8.256;2023-04-25T15:24:50;11.50;99.90
16064;DHT22;8136;53.172;8.256;2023-04-25T15:27:16;11.40;99.90
16064;DHT22;8136;53.172;8.256;2023-04-25T15:29:43;11.40;99.90
16064;DHT22;8136;53.172;8.256;2023-04-25T15:32:10;11.30;99.90
16064;DHT22;8136;53.172;8.256;2023-04-25T15:34:38;11.40;99.90
16064;DHT22;8136;53.172;8.256;2023-04-25T15:37:06;12.40;99.90
16064;DHT22;8136;53.172;8.256;2023-04-25T15:39:33;13.70;99.70
16064;DHT22;8136;53.172;8.256;2023-04-25T15:42:00;13.40;98.30
16064;DHT22;8136;53.172;8.256;2023-04-25T15:44:26;12.60;99.40
16064;DHT22;8136;53.172;8.256;2023-04-25T15:46:53;11.90;99.90
16064;DHT22;8136;53.172;8.256;2023-04-25T15:49:20;11.80;99.90
16064;DHT22;8136;53.172;8.256;2023-04-25T15:51:48;11.40;99.90
16064;DHT22;8136;53.172;8.256;2023-04-25T15:54:17;11.10;99.90
16064;DHT22;8136;53.172;8.256;2023-04-25T15:56:44;10.80;99.90
16064;DHT22;8136;53.172;8.256;2023-04-25T15:59:11;10.60;99.90
16064;DHT22;8136;53.172;8.256;2023-04-25T16:01:38;10.30;99.90